sensor_id;sensor_type;location;lat;lon;timestamp;temperature;humidity
64987;DHT22;67903;52.108;9.358;2023-04-01T00:01:04;9.40;85.50
64987;DHT22;67903;52.108;9.358;2023-04-01T00:03:33;9.40;85.40
64987;DHT22;67903;52.108;9.358;2023-04-01T00:06:01;9.30;85.50
64987;DHT22;67903;52.108;9.358;2023-04-01T00:08:28;9.30;85.20
64987;DHT22;67903;52.108;9.358;2023-04-01T00:10:55;9.30;85.50
64987;DHT22;67903;52.108;9.358;2023-04-01T00:13:25;9.20;85.30
64987;DHT22;67903;52.108;9.358;2023-04-01T00:15:54;9.30;85.20
64987;DHT22;67903;52.108;9.358;2023-04-01T00:18:22;9.20;85.50
64987;DHT22;67903;52.108;9.358;2023-04-01T00:20:51;9.20;85.60
64987;DHT22;67903;52.108;9.358;2023-04-01T00:23:19;9.20;86.00
64987;DHT22;67903;52.108;9.358;2023-04-01T00:25:47;9.10;86.10
64987;DHT22;67903;52.108;9.358;2023-04-01T00:28:17;9.10;86.20
64987;DHT22;67903;52.108;9.358;2023-04-01T00:30:44;9.00;86.60
64987;DHT22;67903;52.108;9.358;2023-04-01T00:33:11;9.00;87.10
64987;DHT22;67903;52.108;9.358;2023-04-01T00:35:38;9.00;87.10
64987;DHT22;67903;52.108;9.358;2023-04-01T00:38:05;9.00;86.90
64987;DHT22;67903;52.108;9.358;2023-04-01T00:40:38;9.00;86.90
64987;DHT22;67903;52.108;9.358;2023-04-01T00:43:17;9.00;87.00
64987;DHT22;67903;52.108;9.358;2023-04-01T00:45:48;9.00;86.70
64987;DHT22;67903;52.108;9.358;2023-04-01T00:48:22;9.00;86.80
64987;DHT22;67903;52.108;9.358;2023-04-01T00:50:53;9.00;87.10
64987;DHT22;67903;52.108;9.358;2023-04-01T00:53:21;9.00;86.40
64987;DHT22;67903;52.108;9.358;2023-04-01T00:55:54;9.00;86.70
64987;DHT22;67903;52.108;9.358;2023-04-01T00:58:26;9.00;86.70
64987;DHT22;67903;52.108;9.358;2023-04-01T01:00:54;9.00;86.60
64987;DHT22;67903;52.108;9.358;2023-04-01T01:03:22;9.00;86.70
64987;DHT22;67903;52.108;9.358;2023-04-01T01:08:49;9.00;87.00
64987;DHT22;67903;52.108;9.358;2023-04-01T01:11:25;9.00;86.80
64987;DHT22;67903;52.108;9.358;2023-04-01T01:16:58;9.00;87.00
64987;DHT22;67903;52.108;9.358;2023-04-01T01:20:04;9.00;87.30
64987;DHT22;67903;52.108;9.358;2023-04-01T01:23:11;9.00;87.20
64987;DHT22;67903;52.108;9.358;2023-04-01T01:26:11;9.00;87.20
64987;DHT22;67903;52.108;9.358;2023-04-01T01:31:40;9.00;87.20
64987;DHT22;67903;52.108;9.358;2023-04-01T01:34:22;9.00;87.30
64987;DHT22;67903;52.108;9.358;2023-04-01T01:36:56;9.00;87.50
64987;DHT22;67903;52.108;9.358;2023-04-01T01:39:26;8.90;87.50
64987;DHT22;67903;52.108;9.358;2023-04-01T01:42:02;8.90;87.60
64987;DHT22;67903;52.108;9.358;2023-04-01T01:44:31;8.90;87.60
64987;DHT22;67903;52.108;9.358;2023-04-01T01:46:59;8.90;87.80
64987;DHT22;67903;52.108;9.358;2023-04-01T01:49:28;8.90;87.50
64987;DHT22;67903;52.108;9.358;2023-04-01T01:51:57;8.90;87.50
64987;DHT22;67903;52.108;9.358;2023-04-01T01:54:24;8.90;87.30
64987;DHT22;67903;52.108;9.358;2023-04-01T01:56:58;8.90;87.20
64987;DHT22;67903;52.108;9.358;2023-04-01T01:59:26;8.90;87.40
64987;DHT22;67903;52.108;9.358;2023-04-01T02:01:56;8.90;87.30
64987;DHT22;67903;52.108;9.358;2023-04-01T02:04:25;8.90;86.90
64987;DHT22;67903;52.108;9.358;2023-04-01T02:06:59;8.90;87.30
64987;DHT22;67903;52.108;9.358;2023-04-01T02:09:27;8.90;87.20
64987;DHT22;67903;52.108;9.358;2023-04-01T02:11:59;8.90;87.00
64987;DHT22;67903;52.108;9.358;2023-04-01T02:14:29;8.90;87.40
64987;DHT22;67903;52.108;9.358;2023-04-01T02:17:09;8.90;87.50
64987;DHT22;67903;52.108;9.358;2023-04-01T02:19:40;8.90;87.40
64987;DHT22;67903;52.108;9.358;2023-04-01T02:22:13;8.90;87.50
64987;DHT22;67903;52.108;9.358;2023-04-01T02:24:42;8.90;87.10
64987;DHT22;67903;52.108;9.358;2023-04-01T02:27:10;8.80;87.20
64987;DHT22;67903;52.108;9.358;2023-04-01T02:29:38;8.80;87.20
64987;DHT22;67903;52.108;9.358;2023-04-01T02:32:08;8.90;87.20
64987;DHT22;67903;52.108;9.358;2023-04-01T02:34:35;8.90;87.10
64987;DHT22;67903;52.108;9.358;2023-04-01T02:37:02;8.90;86.70
64987;DHT22;67903;52.108;9.358;2023-04-01T02:39:29;8.90;86.80
64987;DHT22;67903;52.108;9.358;2023-04-01T02:41:56;8.90;86.40
64987;DHT22;67903;52.108;9.358;2023-04-01T02:44:23;8.90;86.30
64987;DHT22;67903;52.108;9.358;2023-04-01T02:46:50;9.00;86.20
64987;DHT22;67903;52.108;9.358;2023-04-01T02:49:16;8.90;85.80
64987;DHT22;67903;52.108;9.358;2023-04-01T02:51:44;9.00;85.50
64987;DHT22;67903;52.108;9.358;2023-04-01T02:54:11;9.00;85.50
64987;DHT22;67903;52.108;9.358;2023-04-01T02:56:38;8.90;85.50
64987;DHT22;67903;52.108;9.358;2023-04-01T02:59:05;8.90;85.50
64987;DHT22;67903;52.108;9.358;2023-04-01T03:01:32;8.90;85.80
64987;DHT22;67903;52.108;9.358;2023-04-01T03:03:59;8.90;85.90
64987;DHT22;67903;52.108;9.358;2023-04-01T03:06:26;8.90;86.10
64987;DHT22;67903;52.108;9.358;2023-04-01T03:08:52;8.80;86.20
64987;DHT22;67903;52.108;9.358;2023-04-01T03:11:19;8.90;86.50
64987;DHT22;67903;52.108;9.358;2023-04-01T03:13:47;8.80;86.50
64987;DHT22;67903;52.108;9.358;2023-04-01T03:16:15;8.80;86.90
64987;DHT22;67903;52.108;9.358;2023-04-01T03:18:42;8.80;86.90
64987;DHT22;67903;52.108;9.358;2023-04-01T03:21:18;8.80;87.20
64987;DHT22;67903;52.108;9.358;2023-04-01T03:23:46;8.70;87.50
64987;DHT22;67903;52.108;9.358;2023-04-01T03:26:13;8.70;87.70
64987;DHT22;67903;52.108;9.358;2023-04-01T03:28:40;8.70;87.80
64987;DHT22;67903;52.108;9.358;2023-04-01T03:31:07;8.80;87.60
64987;DHT22;67903;52.108;9.358;2023-04-01T03:33:41;8.80;87.60
64987;DHT22;67903;52.108;9.358;2023-04-01T03:36:08;8.80;87.70
64987;DHT22;67903;52.108;9.358;2023-04-01T03:38:35;8.70;87.50
64987;DHT22;67903;52.108;9.358;2023-04-01T03:41:02;8.70;87.30
64987;DHT22;67903;52.108;9.358;2023-04-01T03:43:32;8.70;87.50
64987;DHT22;67903;52.108;9.358;2023-04-01T03:45:59;8.70;87.60
64987;DHT22;67903;52.108;9.358;2023-04-01T03:48:26;8.70;87.70
64987;DHT22;67903;52.108;9.358;2023-04-01T03:50:53;8.80;87.90
64987;DHT22;67903;52.108;9.358;2023-04-01T03:53:20;8.80;88.00
64987;DHT22;67903;52.108;9.358;2023-04-01T03:55:48;8.80;88.00
64987;DHT22;67903;52.108;9.358;2023-04-01T03:58:14;8.80;88.20
64987;DHT22;67903;52.108;9.358;2023-04-01T04:00:41;8.70;88.20
64987;DHT22;67903;52.108;9.358;2023-04-01T04:03:09;8.70;88.20
64987;DHT22;67903;52.108;9.358;2023-04-01T04:05:37;8.70;88.20
64987;DHT22;67903;52.108;9.358;2023-04-01T04:08:04;8.70;88.20
64987;DHT22;67903;52.108;9.358;2023-04-01T04:10:32;8.70;88.40
64987;DHT22;67903;52.108;9.358;2023-04-01T04:12:58;8.80;88.50
64987;DHT22;67903;52.108;9.358;2023-04-01T04:15:28;8.80;88.70
64987;DHT22;67903;52.108;9.358;2023-04-01T04:17:56;8.70;88.70
64987;DHT22;67903;52.108;9.358;2023-04-01T04:20:23;8.70;88.70
64987;DHT22;67903;52.108;9.358;2023-04-01T04:22:49;8.80;88.70
64987;DHT22;67903;52.108;9.358;2023-04-01T04:25:16;8.70;88.70
64987;DHT22;67903;52.108;9.358;2023-04-01T04:27:44;8.70;88.70
64987;DHT22;67903;52.108;9.358;2023-04-01T04:30:12;8.70;88.70
64987;DHT22;67903;52.108;9.358;2023-04-01T04:32:39;8.70;88.50
64987;DHT22;67903;52.108;9.358;2023-04-01T04:35:09;8.70;88.50
64987;DHT22;67903;52.108;9.358;2023-04-01T04:37:36;8.70;88.60
64987;DHT22;67903;52.108;9.358;2023-04-01T04:40:03;8.70;88.70
64987;DHT22;67903;52.108;9.358;2023-04-01T04:42:31;8.60;88.80
64987;DHT22;67903;52.108;9.358;2023-04-01T04:45:05;8.70;89.00
64987;DHT22;67903;52.108;9.358;2023-04-01T04:47:31;8.70;88.70
64987;DHT22;67903;52.108;9.358;2023-04-01T04:49:58;8.70;88.70
64987;DHT22;67903;52.108;9.358;2023-04-01T04:52:25;8.70;88.70
64987;DHT22;67903;52.108;9.358;2023-04-01T04:54:52;8.60;88.70
64987;DHT22;67903;52.108;9.358;2023-04-01T04:57:19;8.70;88.70
64987;DHT22;67903;52.108;9.358;2023-04-01T04:59:52;8.60;88.90
64987;DHT22;67903;52.108;9.358;2023-04-01T05:02:46;8.70;88.80
64987;DHT22;67903;52.108;9.358;2023-04-01T05:05:13;8.70;88.90
64987;DHT22;67903;52.108;9.358;2023-04-01T05:07:40;8.70;88.70
64987;DHT22;67903;52.108;9.358;2023-04-01T05:10:07;8.70;88.90
64987;DHT22;67903;52.108;9.358;2023-04-01T05:12:34;8.80;88.80
64987;DHT22;67903;52.108;9.358;2023-04-01T05:15:06;8.70;88.80
64987;DHT22;67903;52.108;9.358;2023-04-01T05:17:33;8.70;89.00
64987;DHT22;67903;52.108;9.358;2023-04-01T05:20:01;8.70;88.70
64987;DHT22;67903;52.108;9.358;2023-04-01T05:22:28;8.60;88.70
64987;DHT22;67903;52.108;9.358;2023-04-01T05:24:55;8.60;88.80
64987;DHT22;67903;52.108;9.358;2023-04-01T05:27:23;8.70;88.70
64987;DHT22;67903;52.108;9.358;2023-04-01T05:29:49;8.70;88.20
64987;DHT22;67903;52.108;9.358;2023-04-01T05:32:37;8.60;88.40
64987;DHT22;67903;52.108;9.358;2023-04-01T05:35:04;8.70;88.80
64987;DHT22;67903;52.108;9.358;2023-04-01T05:37:31;8.70;88.70
64987;DHT22;67903;52.108;9.358;2023-04-01T05:39:59;8.80;88.60
64987;DHT22;67903;52.108;9.358;2023-04-01T05:42:27;8.80;88.90
64987;DHT22;67903;52.108;9.358;2023-04-01T05:44:54;8.80;88.70
64987;DHT22;67903;52.108;9.358;2023-04-01T05:47:47;8.80;88.60
64987;DHT22;67903;52.108;9.358;2023-04-01T05:50:14;8.90;88.30
64987;DHT22;67903;52.108;9.358;2023-04-01T05:52:42;8.80;87.90
64987;DHT22;67903;52.108;9.358;2023-04-01T05:55:09;8.90;88.10
64987;DHT22;67903;52.108;9.358;2023-04-01T05:57:36;8.90;87.60
64987;DHT22;67903;52.108;9.358;2023-04-01T06:00:04;8.90;87.60
64987;DHT22;67903;52.108;9.358;2023-04-01T06:02:38;8.90;87.50
64987;DHT22;67903;52.108;9.358;2023-04-01T06:05:28;9.00;87.70
64987;DHT22;67903;52.108;9.358;2023-04-01T06:08:00;9.00;87.30
64987;DHT22;67903;52.108;9.358;2023-04-01T06:27:48;9.10;87.70
64987;DHT22;67903;52.108;9.358;2023-04-01T06:33:26;9.20;86.40
64987;DHT22;67903;52.108;9.358;2023-04-01T06:36:14;9.30;86.60
64987;DHT22;67903;52.108;9.358;2023-04-01T06:53:29;9.40;85.20
64987;DHT22;67903;52.108;9.358;2023-04-01T06:56:20;9.50;85.40
64987;DHT22;67903;52.108;9.358;2023-04-01T06:59:12;9.70;85.10
64987;DHT22;67903;52.108;9.358;2023-04-01T07:01:52;9.90;85.20
64987;DHT22;67903;52.108;9.358;2023-04-01T07:04:28;10.00;84.80
64987;DHT22;67903;52.108;9.358;2023-04-01T07:06:58;10.20;84.00
64987;DHT22;67903;52.108;9.358;2023-04-01T07:09:37;10.30;83.90
64987;DHT22;67903;52.108;9.358;2023-04-01T07:12:43;10.50;83.20
64987;DHT22;67903;52.108;9.358;2023-04-01T07:15:55;10.50;82.30
64987;DHT22;67903;52.108;9.358;2023-04-01T07:18:37;10.50;82.30
64987;DHT22;67903;52.108;9.358;2023-04-01T07:21:16;10.60;82.70
64987;DHT22;67903;52.108;9.358;2023-04-01T07:23:50;10.70;82.40
64987;DHT22;67903;52.108;9.358;2023-04-01T07:26:33;10.60;82.50
64987;DHT22;67903;52.108;9.358;2023-04-01T07:28:59;10.60;82.10
64987;DHT22;67903;52.108;9.358;2023-04-01T07:34:26;10.40;82.30
64987;DHT22;67903;52.108;9.358;2023-04-01T07:40:18;10.20;83.70
64987;DHT22;67903;52.108;9.358;2023-04-01T07:48:11;9.90;84.60
64987;DHT22;67903;52.108;9.358;2023-04-01T07:56:11;9.80;85.70
64987;DHT22;67903;52.108;9.358;2023-04-01T08:02:25;9.80;86.30
64987;DHT22;67903;52.108;9.358;2023-04-01T08:05:17;9.80;86.80
64987;DHT22;67903;52.108;9.358;2023-04-01T08:10:49;10.00;86.50
64987;DHT22;67903;52.108;9.358;2023-04-01T08:14:11;10.00;86.00
64987;DHT22;67903;52.108;9.358;2023-04-01T08:17:13;10.10;86.00
64987;DHT22;67903;52.108;9.358;2023-04-01T08:20:05;10.20;85.70
64987;DHT22;67903;52.108;9.358;2023-04-01T08:22:42;10.20;85.20
64987;DHT22;67903;52.108;9.358;2023-04-01T08:25:25;10.30;85.30
64987;DHT22;67903;52.108;9.358;2023-04-01T08:28:21;10.40;85.00
64987;DHT22;67903;52.108;9.358;2023-04-01T08:30:56;10.40;84.60
64987;DHT22;67903;52.108;9.358;2023-04-01T08:33:27;10.50;84.50
64987;DHT22;67903;52.108;9.358;2023-04-01T08:36:06;10.50;84.70
64987;DHT22;67903;52.108;9.358;2023-04-01T08:41:59;10.80;84.10
64987;DHT22;67903;52.108;9.358;2023-04-01T08:48:22;10.80;83.20
64987;DHT22;67903;52.108;9.358;2023-04-01T08:57:07;10.80;83.60
64987;DHT22;67903;52.108;9.358;2023-04-01T09:00:37;10.80;82.70
64987;DHT22;67903;52.108;9.358;2023-04-01T09:03:47;10.90;83.10
64987;DHT22;67903;52.108;9.358;2023-04-01T09:09:28;11.10;83.20
64987;DHT22;67903;52.108;9.358;2023-04-01T09:15:23;11.20;82.10
64987;DHT22;67903;52.108;9.358;2023-04-01T09:18:11;11.20;83.10
64987;DHT22;67903;52.108;9.358;2023-04-01T09:21:03;11.40;82.00
64987;DHT22;67903;52.108;9.358;2023-04-01T09:34:44;11.60;80.60
64987;DHT22;67903;52.108;9.358;2023-04-01T09:40:24;11.50;81.20
64987;DHT22;67903;52.108;9.358;2023-04-01T09:43:38;11.70;81.20
64987;DHT22;67903;52.108;9.358;2023-04-01T09:46:31;11.70;81.20
64987;DHT22;67903;52.108;9.358;2023-04-01T09:49:20;11.60;81.50
64987;DHT22;67903;52.108;9.358;2023-04-01T09:52:18;11.40;82.10
64987;DHT22;67903;52.108;9.358;2023-04-01T10:04:04;11.20;84.00
64987;DHT22;67903;52.108;9.358;2023-04-01T10:12:03;10.90;83.60
64987;DHT22;67903;52.108;9.358;2023-04-01T10:15:07;10.80;83.90
64987;DHT22;67903;52.108;9.358;2023-04-01T10:24:19;11.30;84.20
64987;DHT22;67903;52.108;9.358;2023-04-01T10:27:05;11.40;83.10
64987;DHT22;67903;52.108;9.358;2023-04-01T11:03:39;12.40;80.00
64987;DHT22;67903;52.108;9.358;2023-04-01T11:09:27;12.30;79.90
64987;DHT22;67903;52.108;9.358;2023-04-01T11:20:49;12.00;79.90
64987;DHT22;67903;52.108;9.358;2023-04-01T11:23:37;12.00;80.30
64987;DHT22;67903;52.108;9.358;2023-04-01T11:30:09;12.10;79.20
64987;DHT22;67903;52.108;9.358;2023-04-01T11:32:57;12.20;79.40
64987;DHT22;67903;52.108;9.358;2023-04-01T11:38:49;12.30;78.80
64987;DHT22;67903;52.108;9.358;2023-04-01T11:41:46;12.50;78.40
64987;DHT22;67903;52.108;9.358;2023-04-01T11:44:51;12.50;77.70
64987;DHT22;67903;52.108;9.358;2023-04-01T11:48:03;12.60;78.20
64987;DHT22;67903;52.108;9.358;2023-04-01T12:05:15;13.00;77.10
64987;DHT22;67903;52.108;9.358;2023-04-01T12:13:26;13.20;76.80
64987;DHT22;67903;52.108;9.358;2023-04-01T12:19:00;13.60;75.00
64987;DHT22;67903;52.108;9.358;2023-04-01T12:27:02;13.80;72.90
64987;DHT22;67903;52.108;9.358;2023-04-01T12:29:58;13.70;73.10
64987;DHT22;67903;52.108;9.358;2023-04-01T12:32:59;13.80;72.70
64987;DHT22;67903;52.108;9.358;2023-04-01T12:35:54;13.90;73.10
64987;DHT22;67903;52.108;9.358;2023-04-01T12:41:38;13.60;72.70
64987;DHT22;67903;52.108;9.358;2023-04-01T12:58:48;13.50;73.70
64987;DHT22;67903;52.108;9.358;2023-04-01T13:01:46;13.60;73.30
64987;DHT22;67903;52.108;9.358;2023-04-01T13:04:38;13.50;71.90
64987;DHT22;67903;52.108;9.358;2023-04-01T13:13:39;13.90;73.70
64987;DHT22;67903;52.108;9.358;2023-04-01T13:21:51;13.60;72.20
64987;DHT22;67903;52.108;9.358;2023-04-01T13:24:39;13.20;72.00
64987;DHT22;67903;52.108;9.358;2023-04-01T13:27:25;13.30;72.80
64987;DHT22;67903;52.108;9.358;2023-04-01T13:32:57;13.10;72.80
64987;DHT22;67903;52.108;9.358;2023-04-01T13:35:42;12.80;74.20
64987;DHT22;67903;52.108;9.358;2023-04-01T13:44:57;12.70;75.20
64987;DHT22;67903;52.108;9.358;2023-04-01T13:55:54;12.90;75.00
64987;DHT22;67903;52.108;9.358;2023-04-01T14:01:30;12.80;76.10
64987;DHT22;67903;52.108;9.358;2023-04-01T14:07:19;12.90;76.00
64987;DHT22;67903;52.108;9.358;2023-04-01T14:09:59;13.00;75.30
64987;DHT22;67903;52.108;9.358;2023-04-01T14:12:46;12.90;76.40
64987;DHT22;67903;52.108;9.358;2023-04-01T14:29:23;13.20;75.00
64987;DHT22;67903;52.108;9.358;2023-04-01T14:51:35;12.80;76.40
64987;DHT22;67903;52.108;9.358;2023-04-01T14:54:16;12.50;77.80
64987;DHT22;67903;52.108;9.358;2023-04-01T14:59:49;12.50;77.90
64987;DHT22;67903;52.108;9.358;2023-04-01T15:02:33;12.70;78.30
64987;DHT22;67903;52.108;9.358;2023-04-01T15:08:04;12.50;79.20
64987;DHT22;67903;52.108;9.358;2023-04-01T15:13:24;12.10;81.00
64987;DHT22;67903;52.108;9.358;2023-04-01T15:24:07;11.70;81.90
64987;DHT22;67903;52.108;9.358;2023-04-01T15:35:10;11.70;83.00
64987;DHT22;67903;52.108;9.358;2023-04-01T15:37:56;11.70;83.00
64987;DHT22;67903;52.108;9.358;2023-04-01T15:40:49;11.70;83.40
64987;DHT22;67903;52.108;9.358;2023-04-01T15:43:48;11.70;83.30
64987;DHT22;67903;52.108;9.358;2023-04-01T15:46:43;11.70;83.30
64987;DHT22;67903;52.108;9.358;2023-04-01T15:52:10;11.50;84.10
64987;DHT22;67903;52.108;9.358;2023-04-01T16:00:30;11.00;85.30
64987;DHT22;67903;52.108;9.358;2023-04-01T16:12:07;10.60;86.00
64987;DHT22;67903;52.108;9.358;2023-04-01T16:17:55;10.40;86.00
64987;DHT22;67903;52.108;9.358;2023-04-01T16:21:03;10.10;84.50
64987;DHT22;67903;52.108;9.358;2023-04-01T16:23:47;10.00;85.50
64987;DHT22;67903;52.108;9.358;2023-04-01T16:26:34;9.90;85.50
64987;DHT22;67903;52.108;9.358;2023-04-01T16:29:10;9.80;85.80
64987;DHT22;67903;52.108;9.358;2023-04-01T16:31:55;9.70;84.80
64987;DHT22;67903;52.108;9.358;2023-04-01T16:34:29;9.60;86.00
64987;DHT22;67903;52.108;9.358;2023-04-01T16:37:21;9.60;86.30
64987;DHT22;67903;52.108;9.358;2023-04-01T16:42:53;9.40;86.30
64987;DHT22;67903;52.108;9.358;2023-04-01T16:48:09;9.20;85.80
64987;DHT22;67903;52.108;9.358;2023-04-01T16:51:00;9.20;86.30
64987;DHT22;67903;52.108;9.358;2023-04-01T16:53:45;9.20;86.10
64987;DHT22;67903;52.108;9.358;2023-04-01T16:56:16;9.40;85.50
64987;DHT22;67903;52.108;9.358;2023-04-01T17:01:49;9.20;85.00
64987;DHT22;67903;52.108;9.358;2023-04-01T17:06:55;9.20;85.60
64987;DHT22;67903;52.108;9.358;2023-04-01T17:15:07;9.00;84.40
64987;DHT22;67903;52.108;9.358;2023-04-01T17:18:13;8.90;85.10
64987;DHT22;67903;52.108;9.358;2023-04-01T17:23:39;8.70;85.30
64987;DHT22;67903;52.108;9.358;2023-04-01T17:26:26;8.70;85.40
64987;DHT22;67903;52.108;9.358;2023-04-01T17:42:30;8.40;85.80
64987;DHT22;67903;52.108;9.358;2023-04-01T17:45:04;8.40;85.70
64987;DHT22;67903;52.108;9.358;2023-04-01T17:56:54;8.20;86.80
64987;DHT22;67903;52.108;9.358;2023-04-01T17:59:37;8.20;86.30
64987;DHT22;67903;52.108;9.358;2023-04-01T18:02:33;8.00;86.90
64987;DHT22;67903;52.108;9.358;2023-04-01T18:05:45;8.00;86.90
64987;DHT22;67903;52.108;9.358;2023-04-01T18:08:39;7.90;86.50
64987;DHT22;67903;52.108;9.358;2023-04-01T18:11:23;7.90;86.90
64987;DHT22;67903;52.108;9.358;2023-04-01T18:22:33;7.70;86.10
64987;DHT22;67903;52.108;9.358;2023-04-01T18:31:04;7.50;87.20
64987;DHT22;67903;52.108;9.358;2023-04-01T18:34:04;7.50;86.60
64987;DHT22;67903;52.108;9.358;2023-04-01T18:42:03;7.50;86.10
64987;DHT22;67903;52.108;9.358;2023-04-01T18:50:18;7.20;85.60
64987;DHT22;67903;52.108;9.358;2023-04-01T18:52:54;7.20;86.60
64987;DHT22;67903;52.108;9.358;2023-04-01T18:55:33;7.10;86.70
64987;DHT22;67903;52.108;9.358;2023-04-01T18:58:22;7.20;86.60
64987;DHT22;67903;52.108;9.358;2023-04-01T19:01:05;7.10;85.70
64987;DHT22;67903;52.108;9.358;2023-04-01T19:06:23;7.00;85.50
64987;DHT22;67903;52.108;9.358;2023-04-01T19:08:52;7.00;85.60
64987;DHT22;67903;52.108;9.358;2023-04-01T19:14:16;6.90;85.90
64987;DHT22;67903;52.108;9.358;2023-04-01T19:17:05;7.00;85.20
64987;DHT22;67903;52.108;9.358;2023-04-01T19:19:53;6.90;85.60
64987;DHT22;67903;52.108;9.358;2023-04-01T19:22:38;6.90;85.70
64987;DHT22;67903;52.108;9.358;2023-04-01T19:36:48;6.60;85.60
64987;DHT22;67903;52.108;9.358;2023-04-01T19:39:42;6.50;85.80
64987;DHT22;67903;52.108;9.358;2023-04-01T19:45:01;6.50;85.70
64987;DHT22;67903;52.108;9.358;2023-04-01T19:52:50;6.40;85.30
64987;DHT22;67903;52.108;9.358;2023-04-01T20:00:54;6.40;85.40
64987;DHT22;67903;52.108;9.358;2023-04-01T20:03:55;6.30;85.00
64987;DHT22;67903;52.108;9.358;2023-04-01T20:07:04;6.30;84.90
64987;DHT22;67903;52.108;9.358;2023-04-01T20:09:35;6.40;85.40
64987;DHT22;67903;52.108;9.358;2023-04-01T20:17:55;6.20;84.30
64987;DHT22;67903;52.108;9.358;2023-04-01T20:20:25;6.10;84.00
64987;DHT22;67903;52.108;9.358;2023-04-01T20:25:32;6.10;84.00
64987;DHT22;67903;52.108;9.358;2023-04-01T20:31:08;6.00;84.60
64987;DHT22;67903;52.108;9.358;2023-04-01T20:34:10;6.00;84.60
64987;DHT22;67903;52.108;9.358;2023-04-01T20:45:51;5.80;85.30
64987;DHT22;67903;52.108;9.358;2023-04-01T20:51:14;5.70;84.70
64987;DHT22;67903;52.108;9.358;2023-04-01T20:53:49;5.70;85.30
64987;DHT22;67903;52.108;9.358;2023-04-01T20:56:34;5.70;84.60
64987;DHT22;67903;52.108;9.358;2023-04-01T21:08:24;5.70;84.00
64987;DHT22;67903;52.108;9.358;2023-04-01T21:10:41;5.60;84.30
64987;DHT22;67903;52.108;9.358;2023-04-01T21:25:21;5.60;83.90
64987;DHT22;67903;52.108;9.358;2023-04-01T21:45:37;5.30;84.90
64987;DHT22;67903;52.108;9.358;2023-04-01T21:51:41;5.30;84.00
64987;DHT22;67903;52.108;9.358;2023-04-01T21:54:28;5.30;83.90
64987;DHT22;67903;52.108;9.358;2023-04-01T21:57:08;5.30;84.00
64987;DHT22;67903;52.108;9.358;2023-04-01T22:00:06;5.20;84.00
64987;DHT22;67903;52.108;9.358;2023-04-01T22:06:10;5.10;84.10
64987;DHT22;67903;52.108;9.358;2023-04-01T22:09:06;5.10;83.70
64987;DHT22;67903;52.108;9.358;2023-04-01T22:14:49;5.00;83.70
64987;DHT22;67903;52.108;9.358;2023-04-01T22:17:32;4.90;83.00
64987;DHT22;67903;52.108;9.358;2023-04-01T22:25:56;4.90;83.30
64987;DHT22;67903;52.108;9.358;2023-04-01T22:28:36;4.90;83.60
64987;DHT22;67903;52.108;9.358;2023-04-01T22:31:06;4.80;82.90
64987;DHT22;67903;52.108;9.358;2023-04-01T22:36:22;4.90;83.30
64987;DHT22;67903;52.108;9.358;2023-04-01T22:39:18;4.80;83.20
64987;DHT22;67903;52.108;9.358;2023-04-01T22:50:48;4.70;83.40
64987;DHT22;67903;52.108;9.358;2023-04-01T22:53:29;4.50;84.10
64987;DHT22;67903;52.108;9.358;2023-04-01T22:56:03;4.50;83.90
64987;DHT22;67903;52.108;9.358;2023-04-01T22:58:40;4.50;84.10
64987;DHT22;67903;52.108;9.358;2023-04-01T23:01:16;4.50;84.00
64987;DHT22;67903;52.108;9.358;2023-04-01T23:03:46;4.50;84.10
64987;DHT22;67903;52.108;9.358;2023-04-01T23:06:21;4.50;83.50
64987;DHT22;67903;52.108;9.358;2023-04-01T23:09:01;4.50;83.70
64987;DHT22;67903;52.108;9.358;2023-04-01T23:16:51;4.50;83.10
64987;DHT22;67903;52.108;9.358;2023-04-01T23:19:29;4.50;83.60
64987;DHT22;67903;52.108;9.358;2023-04-01T23:22:25;4.50;83.20
64987;DHT22;67903;52.108;9.358;2023-04-01T23:25:12;4.50;83.20
64987;DHT22;67903;52.108;9.358;2023-04-01T23:27:56;4.50;82.80
64987;DHT22;67903;52.108;9.358;2023-04-01T23:36:10;4.50;82.70
64987;DHT22;67903;52.108;9.358;2023-04-01T23:38:40;4.50;81.80
64987;DHT22;67903;52.108;9.358;2023-04-01T23:41:20;4.40;81.60
64987;DHT22;67903;52.108;9.358;2023-04-01T23:44:17;4.40;82.60
64987;DHT22;67903;52.108;9.358;2023-04-01T23:46:46;4.40;81.90
64987;DHT22;67903;52.108;9.358;2023-04-01T23:49:19;4.40;82.30
64987;DHT22;67903;52.108;9.358;2023-04-01T23:51:53;4.30;82.30
64987;DHT22;67903;52.108;9.358;2023-04-01T23:54:31;4.30;82.90
64987;DHT22;67903;52.108;9.358;2023-04-01T23:56:59;4.30;83.10
64987;DHT22;67903;52.108;9.358;2023-04-01T23:59:33;4.30;82.20
